createdAt,value
2019-04-06T00:03:40.194Z,7.41
2019-04-06T00:08:45.371Z,6.98
2019-04-06T00:13:50.615Z,6.69
2019-04-06T00:18:55.925Z,6.53
2019-04-06T00:24:01.324Z,6.67
2019-04-06T00:29:06.928Z,6.98
2019-04-06T00:34:12.249Z,6.80
2019-04-06T00:39:17.486Z,6.63
2019-04-06T00:44:23.111Z,6.46
2019-04-06T00:49:28.370Z,6.45
2019-04-06T00:54:33.529Z,6.34
2019-04-06T00:59:38.910Z,6.38
2019-04-06T01:04:44.318Z,6.45
2019-04-06T01:09:49.657Z,6.58
2019-04-06T01:14:54.983Z,6.25
2019-04-06T01:20:00.289Z,6.27
2019-04-06T01:25:06.104Z,6.45
2019-04-06T01:30:11.899Z,6.83
2019-04-06T01:35:17.094Z,6.83
2019-04-06T01:40:23.340Z,7.03
2019-04-06T01:45:28.735Z,6.93
2019-04-06T01:50:33.934Z,6.96
2019-04-06T01:55:39.204Z,7.03
2019-04-06T02:00:57.844Z,7.03
2019-04-06T02:06:03.826Z,7.20
2019-04-06T02:11:09.150Z,7.28
2019-04-06T02:16:14.441Z,7.50
2019-04-06T02:21:19.718Z,7.70
2019-04-06T02:26:30.725Z,7.65
2019-04-06T02:31:44.809Z,7.45
2019-04-06T02:36:59.231Z,7.27
2019-04-06T02:42:09.146Z,6.79
2019-04-06T02:47:14.359Z,6.19
2019-04-06T02:52:19.545Z,6.09
2019-04-06T02:57:24.772Z,6.27
2019-04-06T03:02:30.040Z,6.13
2019-04-06T03:07:35.642Z,6.20
2019-04-06T03:12:40.993Z,6.30
2019-04-06T03:17:46.144Z,6.12
2019-04-06T03:22:51.379Z,6.01
2019-04-06T03:27:56.526Z,6.02
2019-04-06T03:33:01.840Z,6.11
2019-04-06T03:38:07.218Z,6.04
2019-04-06T03:43:12.623Z,6.11
2019-04-06T03:48:17.855Z,6.01
2019-04-06T03:53:23.495Z,5.75
2019-04-06T03:58:28.714Z,5.75
2019-04-06T04:03:34.067Z,5.87
2019-04-06T04:08:39.344Z,6.04
2019-04-06T04:13:44.616Z,6.13
2019-04-06T04:18:49.962Z,6.50
2019-04-06T04:23:55.236Z,6.89
2019-04-06T04:29:00.443Z,6.93
2019-04-06T04:34:05.820Z,7.10
2019-04-06T04:39:11.124Z,7.09
2019-04-06T04:44:16.471Z,6.79
2019-04-06T04:49:21.785Z,6.51
2019-04-06T04:54:27.073Z,6.30
2019-04-06T04:59:32.406Z,6.15
2019-04-06T05:04:37.742Z,5.95
2019-04-06T05:09:42.992Z,5.79
2019-04-06T05:14:57.777Z,5.72
2019-04-06T05:20:03.192Z,5.65
2019-04-06T05:25:09.332Z,5.66
2019-04-06T05:30:15.497Z,5.61
2019-04-06T05:35:20.808Z,5.54
2019-04-06T05:40:26.116Z,5.56
2019-04-06T05:45:31.357Z,5.66
2019-04-06T05:50:36.627Z,5.80
2019-04-06T05:55:42.088Z,5.85
2019-04-06T06:00:47.352Z,5.93
2019-04-06T06:05:52.874Z,5.92
2019-04-06T06:10:58.583Z,5.72
2019-04-06T06:16:04.003Z,5.63
2019-04-06T06:21:09.261Z,5.65
2019-04-06T06:26:14.656Z,5.80
2019-04-06T06:31:20.172Z,6.03
2019-04-06T06:36:25.673Z,6.22
2019-04-06T06:41:31.034Z,6.62
2019-04-06T06:46:36.345Z,6.81
2019-04-06T06:51:41.752Z,7.01
2019-04-06T06:56:47.098Z,7.24
2019-04-06T07:01:52.517Z,7.41
2019-04-06T07:06:58.119Z,7.89
2019-04-06T07:12:03.451Z,8.27
2019-04-06T07:17:08.908Z,8.68
2019-04-06T07:22:14.171Z,8.92
2019-04-06T07:27:19.572Z,9.17
2019-04-06T07:32:26.019Z,9.78
2019-04-06T07:37:31.331Z,10.40
2019-04-06T07:42:36.931Z,10.62
2019-04-06T07:47:42.232Z,10.57
2019-04-06T07:52:49.852Z,10.48
2019-04-06T07:57:55.358Z,10.29
2019-04-06T08:03:05.332Z,10.09
2019-04-06T08:08:10.711Z,9.98
2019-04-06T08:13:16.267Z,10.17
2019-04-06T08:18:21.871Z,10.36
2019-04-06T08:23:27.350Z,10.25
2019-04-06T08:28:32.731Z,10.44
2019-04-06T08:33:38.186Z,10.37
2019-04-06T08:38:43.532Z,10.48
2019-04-06T08:43:48.772Z,10.62
2019-04-06T08:48:54.092Z,10.66
2019-04-06T08:53:59.587Z,10.77
2019-04-06T08:59:11.597Z,11.02
2019-04-06T09:04:12.592Z,11.42
2019-04-06T09:09:17.912Z,12.27
2019-04-06T09:14:25.353Z,12.48
2019-04-06T09:19:30.774Z,13.23
2019-04-06T09:24:36.225Z,14.03
2019-04-06T09:29:41.652Z,14.39
2019-04-06T09:34:47.131Z,14.73
2019-04-06T09:39:53.598Z,14.01
2019-04-06T09:45:06.149Z,14.51
2019-04-06T09:50:25.131Z,15.22
2019-04-06T09:55:40.786Z,14.85
2019-04-06T10:00:55.052Z,13.55
2019-04-06T10:06:09.132Z,13.92
2019-04-06T10:11:23.012Z,14.71
2019-04-06T10:16:37.072Z,15.37
2019-04-06T10:21:58.594Z,15.47
2019-04-06T10:27:12.032Z,15.49
2019-04-06T10:32:29.051Z,15.87
2019-04-06T10:37:43.012Z,15.79
2019-04-06T10:43:00.349Z,15.14
2019-04-06T10:48:12.827Z,14.27
2019-04-06T10:53:27.186Z,13.12
2019-04-06T10:58:45.740Z,13.51
2019-04-06T11:03:59.025Z,14.02
2019-04-06T11:09:15.293Z,14.86
2019-04-06T11:14:29.058Z,14.86
2019-04-06T11:19:46.126Z,15.24
2019-04-06T11:25:10.318Z,15.42
2019-04-06T11:30:22.466Z,16.15
2019-04-06T11:35:36.006Z,17.10
2019-04-06T11:40:50.671Z,16.57
2019-04-06T11:46:04.933Z,13.95
2019-04-06T11:51:25.737Z,14.00
2019-04-06T11:56:40.592Z,13.64
2019-04-06T12:02:04.893Z,12.85
2019-04-06T12:07:19.256Z,13.95
2019-04-06T12:12:43.471Z,15.15
2019-04-06T12:18:00.037Z,15.28
2019-04-06T12:23:14.105Z,13.74
2019-04-06T12:28:27.952Z,14.06
2019-04-06T12:33:49.411Z,13.26
2019-04-06T12:39:04.006Z,13.00
2019-04-06T12:44:19.864Z,12.93
2019-04-06T12:49:34.057Z,12.69
2019-04-06T12:54:50.927Z,12.82
2019-04-06T13:00:05.095Z,13.16
2019-04-06T13:05:19.911Z,13.35
2019-04-06T13:10:33.002Z,13.45
2019-04-06T13:15:46.998Z,13.65
2019-04-06T13:21:01.098Z,13.99
2019-04-06T13:26:15.127Z,13.84
2019-04-06T13:31:32.717Z,13.79
2019-04-06T13:36:45.732Z,13.95
2019-04-06T13:41:59.812Z,14.04
2019-04-06T13:47:24.053Z,13.77
2019-04-06T13:52:38.014Z,14.40
2019-04-06T13:57:48.437Z,14.38
2019-04-06T14:03:00.601Z,14.22
2019-04-06T14:08:14.337Z,14.06
2019-04-06T14:13:27.801Z,13.40
2019-04-06T14:18:42.019Z,12.92
2019-04-06T14:24:00.013Z,12.83
2019-04-06T14:29:14.032Z,12.81
2019-04-06T14:34:30.336Z,13.23
2019-04-06T14:39:49.978Z,13.49
2019-04-06T14:45:04.827Z,13.40
2019-04-06T14:50:19.085Z,13.12
2019-04-06T14:55:39.242Z,13.04
2019-04-06T15:00:54.010Z,12.83
2019-04-06T15:06:14.853Z,12.86
2019-04-06T15:11:29.209Z,12.86
2019-04-06T15:16:42.390Z,12.70
2019-04-06T15:21:59.746Z,12.81
2019-04-06T15:27:13.423Z,13.01
2019-04-06T15:32:27.014Z,12.57
2019-04-06T15:37:42.400Z,12.22
2019-04-06T15:42:57.252Z,12.00
2019-04-06T15:48:13.325Z,11.89
2019-04-06T15:53:30.292Z,11.94
2019-04-06T15:58:41.102Z,11.87
2019-04-06T16:03:55.170Z,11.90
2019-04-06T16:09:15.094Z,11.89
2019-04-06T16:14:31.974Z,12.08
2019-04-06T16:19:45.465Z,12.26
2019-04-06T16:24:59.558Z,12.20
2019-04-06T16:30:16.341Z,12.20
2019-04-06T16:35:30.031Z,12.02
2019-04-06T16:40:44.014Z,11.85
2019-04-06T16:46:00.653Z,11.81
2019-04-06T16:51:16.694Z,11.74
2019-04-06T16:56:28.815Z,11.69
2019-04-06T17:01:43.772Z,11.71
2019-04-06T17:07:00.718Z,11.69
2019-04-06T17:12:15.934Z,11.68
2019-04-06T17:17:29.818Z,11.68
2019-04-06T17:22:53.105Z,11.69
2019-04-06T17:28:05.534Z,11.54
2019-04-06T17:33:19.052Z,11.38
2019-04-06T17:38:30.560Z,11.37
2019-04-06T17:43:47.490Z,11.37
2019-04-06T17:49:10.174Z,11.19
2019-04-06T17:54:24.390Z,11.08
2019-04-06T17:59:45.237Z,10.97
2019-04-06T18:05:05.932Z,10.95
2019-04-06T18:10:18.535Z,10.98
2019-04-06T18:15:24.407Z,11.05
2019-04-06T18:20:30.986Z,11.15
2019-04-06T18:25:37.275Z,11.08
2019-04-06T18:30:43.087Z,11.09
2019-04-06T18:35:51.646Z,11.16
2019-04-06T18:40:57.039Z,11.03
2019-04-06T18:46:02.577Z,10.81
2019-04-06T18:51:07.883Z,10.68
2019-04-06T18:56:13.523Z,10.75
2019-04-06T19:01:19.314Z,10.96
2019-04-06T19:06:25.714Z,10.82
2019-04-06T19:11:31.312Z,10.65
2019-04-06T19:16:36.735Z,10.62
2019-04-06T19:21:42.568Z,10.52
2019-04-06T19:26:47.874Z,10.48
2019-04-06T19:31:54.451Z,10.75
2019-04-06T19:37:00.206Z,10.90
2019-04-06T19:42:06.434Z,10.99
2019-04-06T19:47:12.059Z,10.90
2019-04-06T19:52:17.562Z,10.63
2019-04-06T19:57:22.904Z,10.53
2019-04-06T20:02:28.759Z,10.52
2019-04-06T20:07:34.323Z,10.56
2019-04-06T20:12:40.024Z,10.52
2019-04-06T20:17:45.322Z,10.52
2019-04-06T20:22:50.622Z,10.55
2019-04-06T20:27:56.573Z,10.52
2019-04-06T20:33:02.051Z,10.39
2019-04-06T20:38:08.843Z,10.32
2019-04-06T20:43:14.521Z,10.17
2019-04-06T20:48:20.433Z,9.97
2019-04-06T20:53:25.902Z,9.75
2019-04-06T20:58:31.365Z,9.66
2019-04-06T21:03:36.602Z,9.41
2019-04-06T21:08:42.018Z,9.36
2019-04-06T21:13:47.307Z,9.26
2019-04-06T21:18:52.753Z,9.20
2019-04-06T21:23:58.218Z,9.31
2019-04-06T21:29:03.726Z,9.37
2019-04-06T21:34:12.685Z,9.46
2019-04-06T21:39:16.406Z,9.61
2019-04-06T21:44:23.020Z,9.60
2019-04-06T21:49:28.242Z,9.60
2019-04-06T21:54:34.414Z,9.58
2019-04-06T21:59:41.827Z,9.49
2019-04-06T22:04:47.202Z,9.29
2019-04-06T22:09:52.678Z,9.16
2019-04-06T22:14:58.118Z,8.99
2019-04-06T22:20:04.070Z,8.92
2019-04-06T22:25:09.526Z,8.72
2019-04-06T22:30:18.978Z,8.65
2019-04-06T22:35:23.990Z,8.57
2019-04-06T22:40:29.461Z,8.55
2019-04-06T22:45:35.951Z,8.54
2019-04-06T22:50:42.267Z,8.50
2019-04-06T22:55:47.482Z,8.50
2019-04-06T23:00:57.342Z,8.48
2019-04-06T23:06:06.321Z,8.44
2019-04-06T23:11:11.732Z,8.34
2019-04-06T23:16:17.076Z,8.30
2019-04-06T23:21:22.890Z,8.29
2019-04-06T23:26:28.150Z,8.25
2019-04-06T23:31:33.618Z,8.32
2019-04-06T23:36:39.450Z,8.27
2019-04-06T23:41:45.026Z,8.27
2019-04-06T23:46:50.991Z,8.22
2019-04-06T23:51:56.439Z,8.22
2019-04-06T23:57:02.522Z,8.22
